sensor_id;sensor_type;location;lat;lon;timestamp;pressure;altitude;pressure_sealevel;temperature;humidity
70437;BME280;57877;39.750;-104.894;2024-03-06T00:01:58;83243.68;;;11.37;17.85
70437;BME280;57877;39.750;-104.894;2024-03-06T00:04:24;83240.63;;;11.08;17.83
70437;BME280;57877;39.750;-104.894;2024-03-06T00:06:50;83242.60;;;11.66;17.59
70437;BME280;57877;39.750;-104.894;2024-03-06T00:09:16;83241.13;;;11.14;18.03
70437;BME280;57877;39.750;-104.894;2024-03-06T00:11:42;83244.41;;;11.25;17.72
70437;BME280;57877;39.750;-104.894;2024-03-06T00:14:08;83244.97;;;11.23;18.35
70437;BME280;57877;39.750;-104.894;2024-03-06T00:16:34;83245.12;;;11.30;17.94
70437;BME280;57877;39.750;-104.894;2024-03-06T00:19:00;83244.72;;;11.55;17.81
70437;BME280;57877;39.750;-104.894;2024-03-06T00:21:26;83249.76;;;11.15;18.03
70437;BME280;57877;39.750;-104.894;2024-03-06T00:23:52;83252.22;;;10.04;18.80
70437;BME280;57877;39.750;-104.894;2024-03-06T00:26:18;83250.94;;;11.04;18.29
70437;BME280;57877;39.750;-104.894;2024-03-06T00:28:44;83254.29;;;9.91;19.07
70437;BME280;57877;39.750;-104.894;2024-03-06T00:31:10;83256.00;;;10.42;18.94
70437;BME280;57877;39.750;-104.894;2024-03-06T00:33:36;83257.61;;;9.84;19.42
70437;BME280;57877;39.750;-104.894;2024-03-06T00:36:02;83260.90;;;9.63;19.67
70437;BME280;57877;39.750;-104.894;2024-03-06T00:38:28;83261.00;;;9.92;19.48
70437;BME280;57877;39.750;-104.894;2024-03-06T00:40:54;83261.38;;;9.59;19.97
70437;BME280;57877;39.750;-104.894;2024-03-06T00:43:20;83267.33;;;9.22;20.30
70437;BME280;57877;39.750;-104.894;2024-03-06T00:45:46;83267.71;;;9.33;20.18
70437;BME280;57877;39.750;-104.894;2024-03-06T00:48:12;83269.91;;;9.45;20.29
70437;BME280;57877;39.750;-104.894;2024-03-06T00:50:38;83270.88;;;9.04;20.40
70437;BME280;57877;39.750;-104.894;2024-03-06T00:53:04;83272.90;;;9.47;20.10
70437;BME280;57877;39.750;-104.894;2024-03-06T00:55:30;83277.59;;;8.89;20.62
70437;BME280;57877;39.750;-104.894;2024-03-06T00:57:56;83277.35;;;9.60;20.13
70437;BME280;57877;39.750;-104.894;2024-03-06T01:00:22;83280.11;;;9.55;20.01
70437;BME280;57877;39.750;-104.894;2024-03-06T01:02:48;83279.18;;;9.79;19.85
70437;BME280;57877;39.750;-104.894;2024-03-06T01:05:14;83279.29;;;9.76;19.66
70437;BME280;57877;39.750;-104.894;2024-03-06T01:07:40;83282.37;;;9.62;19.62
70437;BME280;57877;39.750;-104.894;2024-03-06T01:10:07;83280.73;;;10.14;19.58
70437;BME280;57877;39.750;-104.894;2024-03-06T01:12:32;83282.11;;;9.50;19.75
70437;BME280;57877;39.750;-104.894;2024-03-06T01:14:58;83286.02;;;9.86;19.63
70437;BME280;57877;39.750;-104.894;2024-03-06T01:17:24;83287.41;;;9.66;19.58
70437;BME280;57877;39.750;-104.894;2024-03-06T01:19:50;83289.79;;;9.94;19.56
70437;BME280;57877;39.750;-104.894;2024-03-06T01:22:16;83290.35;;;9.60;19.68
70437;BME280;57877;39.750;-104.894;2024-03-06T01:24:42;83295.68;;;9.42;20.14
70437;BME280;57877;39.750;-104.894;2024-03-06T01:27:08;83294.69;;;9.76;19.96
70437;BME280;57877;39.750;-104.894;2024-03-06T01:29:34;83293.68;;;9.91;19.82
70437;BME280;57877;39.750;-104.894;2024-03-06T01:32:00;83296.20;;;8.96;20.16
70437;BME280;57877;39.750;-104.894;2024-03-06T01:34:25;83300.43;;;9.62;20.10
70437;BME280;57877;39.750;-104.894;2024-03-06T01:36:51;83300.87;;;9.44;20.19
70437;BME280;57877;39.750;-104.894;2024-03-06T01:39:17;83304.55;;;9.09;20.68
70437;BME280;57877;39.750;-104.894;2024-03-06T01:41:45;83308.35;;;8.77;21.31
70437;BME280;57877;39.750;-104.894;2024-03-06T01:44:07;83311.87;;;8.75;21.44
70437;BME280;57877;39.750;-104.894;2024-03-06T01:46:32;83312.00;;;8.49;21.49
70437;BME280;57877;39.750;-104.894;2024-03-06T01:48:57;83312.08;;;8.76;21.38
70437;BME280;57877;39.750;-104.894;2024-03-06T01:51:22;83311.73;;;8.17;21.57
70437;BME280;57877;39.750;-104.894;2024-03-06T01:53:49;83312.74;;;8.51;21.55
70437;BME280;57877;39.750;-104.894;2024-03-06T01:56:14;83309.84;;;8.34;22.12
70437;BME280;57877;39.750;-104.894;2024-03-06T01:58:40;83307.80;;;8.01;22.11
70437;BME280;57877;39.750;-104.894;2024-03-06T02:01:05;83308.53;;;7.96;22.25
70437;BME280;57877;39.750;-104.894;2024-03-06T02:03:32;83312.17;;;7.39;22.69
70437;BME280;57877;39.750;-104.894;2024-03-06T02:05:57;83307.61;;;7.84;23.56
70437;BME280;57877;39.750;-104.894;2024-03-06T02:08:21;83308.84;;;7.67;23.85
70437;BME280;57877;39.750;-104.894;2024-03-06T02:10:46;83313.37;;;6.62;25.69
70437;BME280;57877;39.750;-104.894;2024-03-06T02:13:13;83315.58;;;6.65;26.41
70437;BME280;57877;39.750;-104.894;2024-03-06T02:15:38;83316.33;;;6.49;26.74
70437;BME280;57877;39.750;-104.894;2024-03-06T02:18:05;83319.86;;;6.01;27.50
70437;BME280;57877;39.750;-104.894;2024-03-06T02:20:28;83326.67;;;6.27;27.46
70437;BME280;57877;39.750;-104.894;2024-03-06T02:22:53;83331.25;;;5.36;28.83
70437;BME280;57877;39.750;-104.894;2024-03-06T02:25:19;83335.73;;;5.19;29.10
70437;BME280;57877;39.750;-104.894;2024-03-06T02:27:44;83334.80;;;4.92;29.42
70437;BME280;57877;39.750;-104.894;2024-03-06T02:30:10;83333.72;;;5.26;28.87
70437;BME280;57877;39.750;-104.894;2024-03-06T02:32:34;83333.19;;;5.41;28.85
70437;BME280;57877;39.750;-104.894;2024-03-06T02:35:01;83334.17;;;4.24;30.12
70437;BME280;57877;39.750;-104.894;2024-03-06T02:37:24;83332.87;;;5.22;29.06
70437;BME280;57877;39.750;-104.894;2024-03-06T02:39:50;83333.93;;;4.70;29.81
70437;BME280;57877;39.750;-104.894;2024-03-06T02:42:15;83335.37;;;4.70;29.60
70437;BME280;57877;39.750;-104.894;2024-03-06T02:44:40;83335.01;;;5.01;29.24
70437;BME280;57877;39.750;-104.894;2024-03-06T02:47:05;83332.99;;;5.05;29.32
70437;BME280;57877;39.750;-104.894;2024-03-06T02:49:30;83333.05;;;4.78;29.58
70437;BME280;57877;39.750;-104.894;2024-03-06T02:51:55;83334.82;;;5.20;29.35
70437;BME280;57877;39.750;-104.894;2024-03-06T02:54:20;83332.67;;;5.44;29.23
70437;BME280;57877;39.750;-104.894;2024-03-06T02:56:45;83331.14;;;4.77;29.74
70437;BME280;57877;39.750;-104.894;2024-03-06T02:59:10;83329.32;;;4.97;29.66
70437;BME280;57877;39.750;-104.894;2024-03-06T03:01:36;83333.72;;;4.98;29.42
70437;BME280;57877;39.750;-104.894;2024-03-06T03:04:02;83335.65;;;4.52;29.87
70437;BME280;57877;39.750;-104.894;2024-03-06T03:06:28;83329.02;;;5.19;29.11
70437;BME280;57877;39.750;-104.894;2024-03-06T03:08:54;83327.39;;;4.86;29.59
70437;BME280;57877;39.750;-104.894;2024-03-06T03:11:19;83322.01;;;4.99;29.59
70437;BME280;57877;39.750;-104.894;2024-03-06T03:13:44;83324.77;;;3.94;30.85
70437;BME280;57877;39.750;-104.894;2024-03-06T03:16:17;83330.83;;;4.11;30.46
70437;BME280;57877;39.750;-104.894;2024-03-06T03:18:34;83332.67;;;4.29;30.38
70437;BME280;57877;39.750;-104.894;2024-03-06T03:21:00;83339.77;;;4.70;29.88
70437;BME280;57877;39.750;-104.894;2024-03-06T03:23:26;83339.52;;;4.23;30.42
70437;BME280;57877;39.750;-104.894;2024-03-06T03:25:52;83339.95;;;4.97;29.83
70437;BME280;57877;39.750;-104.894;2024-03-06T03:28:18;83347.22;;;2.73;32.81
70437;BME280;57877;39.750;-104.894;2024-03-06T03:30:44;83346.50;;;4.64;30.40
70437;BME280;57877;39.750;-104.894;2024-03-06T03:33:08;83343.67;;;3.64;31.74
70437;BME280;57877;39.750;-104.894;2024-03-06T03:35:33;83339.85;;;4.30;31.16
70437;BME280;57877;39.750;-104.894;2024-03-06T03:37:58;83336.02;;;4.30;31.08
70437;BME280;57877;39.750;-104.894;2024-03-06T03:40:23;83337.16;;;4.74;30.61
70437;BME280;57877;39.750;-104.894;2024-03-06T03:42:48;83343.49;;;3.15;32.65
70437;BME280;57877;39.750;-104.894;2024-03-06T03:45:13;83344.23;;;3.08;33.45
70437;BME280;57877;39.750;-104.894;2024-03-06T03:47:38;83345.95;;;4.50;31.14
70437;BME280;57877;39.750;-104.894;2024-03-06T03:50:04;83355.24;;;4.54;30.98
70437;BME280;57877;39.750;-104.894;2024-03-06T03:52:29;83358.67;;;4.12;31.09
70437;BME280;57877;39.750;-104.894;2024-03-06T03:54:54;83357.88;;;4.87;30.05
70437;BME280;57877;39.750;-104.894;2024-03-06T03:57:19;83360.33;;;4.63;30.12
70437;BME280;57877;39.750;-104.894;2024-03-06T03:59:44;83360.11;;;4.69;30.04
70437;BME280;57877;39.750;-104.894;2024-03-06T04:02:09;83360.74;;;4.49;30.34
70437;BME280;57877;39.750;-104.894;2024-03-06T04:04:35;83356.90;;;4.37;30.34
70437;BME280;57877;39.750;-104.894;2024-03-06T04:07:00;83357.06;;;3.91;30.91
70437;BME280;57877;39.750;-104.894;2024-03-06T04:09:24;83357.76;;;4.21;30.62
70437;BME280;57877;39.750;-104.894;2024-03-06T04:11:49;83355.31;;;4.04;31.04
70437;BME280;57877;39.750;-104.894;2024-03-06T04:14:15;83353.66;;;4.74;30.36
70437;BME280;57877;39.750;-104.894;2024-03-06T04:16:40;83348.14;;;5.00;30.06
70437;BME280;57877;39.750;-104.894;2024-03-06T04:19:05;83346.49;;;4.92;29.88
70437;BME280;57877;39.750;-104.894;2024-03-06T04:21:30;83349.06;;;3.19;31.85
70437;BME280;57877;39.750;-104.894;2024-03-06T04:23:55;83350.65;;;3.58;32.28
70437;BME280;57877;39.750;-104.894;2024-03-06T04:26:20;83348.46;;;3.55;31.87
70437;BME280;57877;39.750;-104.894;2024-03-06T04:28:45;83345.89;;;3.96;31.24
70437;BME280;57877;39.750;-104.894;2024-03-06T04:31:10;83346.94;;;4.44;30.50
70437;BME280;57877;39.750;-104.894;2024-03-06T04:33:36;83347.68;;;4.45;30.73
70437;BME280;57877;39.750;-104.894;2024-03-06T04:36:03;83352.56;;;4.03;31.03
70437;BME280;57877;39.750;-104.894;2024-03-06T04:38:26;83356.80;;;4.37;30.75
70437;BME280;57877;39.750;-104.894;2024-03-06T04:40:52;83360.74;;;4.25;30.33
70437;BME280;57877;39.750;-104.894;2024-03-06T04:43:17;83360.92;;;4.05;30.92
70437;BME280;57877;39.750;-104.894;2024-03-06T04:45:42;83370.41;;;4.64;30.21
70437;BME280;57877;39.750;-104.894;2024-03-06T04:48:08;83375.90;;;4.62;30.18
70437;BME280;57877;39.750;-104.894;2024-03-06T04:50:32;83377.05;;;4.86;29.78
70437;BME280;57877;39.750;-104.894;2024-03-06T04:52:57;83384.29;;;4.69;29.73
70437;BME280;57877;39.750;-104.894;2024-03-06T04:55:22;83389.13;;;4.85;29.58
70437;BME280;57877;39.750;-104.894;2024-03-06T04:57:48;83387.56;;;5.09;29.50
70437;BME280;57877;39.750;-104.894;2024-03-06T05:00:13;83385.90;;;4.98;29.51
70437;BME280;57877;39.750;-104.894;2024-03-06T05:02:38;83384.56;;;4.42;29.86
70437;BME280;57877;39.750;-104.894;2024-03-06T05:05:03;83383.00;;;4.11;30.15
70437;BME280;57877;39.750;-104.894;2024-03-06T05:07:28;83382.56;;;4.55;30.12
70437;BME280;57877;39.750;-104.894;2024-03-06T05:09:52;83380.31;;;4.39;30.39
70437;BME280;57877;39.750;-104.894;2024-03-06T05:12:17;83376.26;;;4.39;30.38
70437;BME280;57877;39.750;-104.894;2024-03-06T05:14:42;83370.97;;;4.60;30.13
70437;BME280;57877;39.750;-104.894;2024-03-06T05:17:08;83364.43;;;4.57;30.00
70437;BME280;57877;39.750;-104.894;2024-03-06T05:19:33;83357.14;;;4.20;30.62
70437;BME280;57877;39.750;-104.894;2024-03-06T05:21:58;83354.43;;;4.32;30.56
70437;BME280;57877;39.750;-104.894;2024-03-06T05:24:23;83352.42;;;4.16;30.49
70437;BME280;57877;39.750;-104.894;2024-03-06T05:26:48;83355.58;;;3.33;31.69
70437;BME280;57877;39.750;-104.894;2024-03-06T05:29:13;83355.89;;;3.48;31.88
70437;BME280;57877;39.750;-104.894;2024-03-06T05:31:38;83351.22;;;4.00;31.27
70437;BME280;57877;39.750;-104.894;2024-03-06T05:34:03;83350.17;;;3.98;31.33
70437;BME280;57877;39.750;-104.894;2024-03-06T05:36:28;83351.16;;;3.69;31.84
70437;BME280;57877;39.750;-104.894;2024-03-06T05:38:53;83347.81;;;3.23;32.35
70437;BME280;57877;39.750;-104.894;2024-03-06T05:41:18;83350.27;;;2.88;32.73
70437;BME280;57877;39.750;-104.894;2024-03-06T05:43:43;83349.95;;;3.52;32.51
70437;BME280;57877;39.750;-104.894;2024-03-06T05:46:08;83348.22;;;3.46;32.19
70437;BME280;57877;39.750;-104.894;2024-03-06T05:48:33;83346.82;;;3.02;32.31
70437;BME280;57877;39.750;-104.894;2024-03-06T05:50:59;83342.19;;;3.18;32.36
70437;BME280;57877;39.750;-104.894;2024-03-06T05:53:24;83339.22;;;3.17;32.71
70437;BME280;57877;39.750;-104.894;2024-03-06T05:55:50;83337.38;;;3.34;32.61
70437;BME280;57877;39.750;-104.894;2024-03-06T05:58:15;83343.06;;;2.68;33.70
70437;BME280;57877;39.750;-104.894;2024-03-06T06:00:40;83346.50;;;2.83;34.04
70437;BME280;57877;39.750;-104.894;2024-03-06T06:03:05;83340.47;;;2.83;33.97
70437;BME280;57877;39.750;-104.894;2024-03-06T06:05:30;83339.28;;;2.80;33.47
70437;BME280;57877;39.750;-104.894;2024-03-06T06:07:55;83341.08;;;1.65;35.58
70437;BME280;57877;39.750;-104.894;2024-03-06T06:10:20;83337.04;;;0.70;37.08
70437;BME280;57877;39.750;-104.894;2024-03-06T06:12:45;83330.37;;;2.27;34.87
70437;BME280;57877;39.750;-104.894;2024-03-06T06:15:11;83335.78;;;1.89;35.22
70437;BME280;57877;39.750;-104.894;2024-03-06T06:17:35;83337.40;;;1.41;37.04
70437;BME280;57877;39.750;-104.894;2024-03-06T06:20:00;83332.26;;;1.46;36.10
70437;BME280;57877;39.750;-104.894;2024-03-06T06:22:28;83328.48;;;1.03;37.24
70437;BME280;57877;39.750;-104.894;2024-03-06T06:24:50;83322.22;;;1.31;36.80
70437;BME280;57877;39.750;-104.894;2024-03-06T06:27:16;83323.96;;;2.15;35.25
70437;BME280;57877;39.750;-104.894;2024-03-06T06:29:40;83325.40;;;2.20;34.80
70437;BME280;57877;39.750;-104.894;2024-03-06T06:32:06;83324.11;;;1.70;35.39
70437;BME280;57877;39.750;-104.894;2024-03-06T06:34:31;83312.43;;;0.94;36.60
70437;BME280;57877;39.750;-104.894;2024-03-06T06:36:56;83310.84;;;2.02;34.95
70437;BME280;57877;39.750;-104.894;2024-03-06T06:39:21;83314.95;;;1.91;35.13
70437;BME280;57877;39.750;-104.894;2024-03-06T06:41:46;83308.11;;;1.46;35.89
70437;BME280;57877;39.750;-104.894;2024-03-06T06:44:11;83303.79;;;1.68;35.31
70437;BME280;57877;39.750;-104.894;2024-03-06T06:46:36;83295.10;;;0.92;36.58
70437;BME280;57877;39.750;-104.894;2024-03-06T06:49:01;83288.38;;;0.61;37.47
70437;BME280;57877;39.750;-104.894;2024-03-06T06:51:26;83286.15;;;0.77;37.39
70437;BME280;57877;39.750;-104.894;2024-03-06T06:53:51;83281.65;;;0.71;37.34
70437;BME280;57877;39.750;-104.894;2024-03-06T06:56:16;83277.77;;;1.08;36.68
70437;BME280;57877;39.750;-104.894;2024-03-06T06:58:41;83275.76;;;0.30;38.16
70437;BME280;57877;39.750;-104.894;2024-03-06T07:01:06;83265.57;;;1.49;35.83
70437;BME280;57877;39.750;-104.894;2024-03-06T07:03:31;83262.71;;;1.10;36.35
70437;BME280;57877;39.750;-104.894;2024-03-06T07:05:57;83264.45;;;1.27;36.39
70437;BME280;57877;39.750;-104.894;2024-03-06T07:08:22;83263.78;;;0.80;36.59
70437;BME280;57877;39.750;-104.894;2024-03-06T07:10:47;83257.22;;;1.74;36.24
70437;BME280;57877;39.750;-104.894;2024-03-06T07:13:12;83253.04;;;1.13;37.22
70437;BME280;57877;39.750;-104.894;2024-03-06T07:15:37;83251.16;;;1.02;36.98
70437;BME280;57877;39.750;-104.894;2024-03-06T07:18:02;83253.64;;;0.53;37.56
70437;BME280;57877;39.750;-104.894;2024-03-06T07:20:27;83249.56;;;0.53;37.64
70437;BME280;57877;39.750;-104.894;2024-03-06T07:22:52;83245.12;;;1.34;36.09
70437;BME280;57877;39.750;-104.894;2024-03-06T07:25:17;83244.68;;;1.47;36.03
70437;BME280;57877;39.750;-104.894;2024-03-06T07:27:42;83239.39;;;0.57;37.87
70437;BME280;57877;39.750;-104.894;2024-03-06T07:30:08;83241.99;;;-0.22;38.74
70437;BME280;57877;39.750;-104.894;2024-03-06T07:32:32;83239.64;;;0.70;37.23
70437;BME280;57877;39.750;-104.894;2024-03-06T07:34:58;83241.63;;;1.40;35.99
70437;BME280;57877;39.750;-104.894;2024-03-06T07:37:23;83238.95;;;1.22;36.66
70437;BME280;57877;39.750;-104.894;2024-03-06T07:39:48;83231.88;;;0.33;37.25
70437;BME280;57877;39.750;-104.894;2024-03-06T07:42:13;83237.50;;;0.93;36.00
70437;BME280;57877;39.750;-104.894;2024-03-06T07:44:38;83235.46;;;0.76;36.31
70437;BME280;57877;39.750;-104.894;2024-03-06T07:47:03;83232.85;;;1.86;35.01
70437;BME280;57877;39.750;-104.894;2024-03-06T07:49:28;83231.19;;;1.52;35.21
70437;BME280;57877;39.750;-104.894;2024-03-06T07:51:53;83230.42;;;1.89;34.63
70437;BME280;57877;39.750;-104.894;2024-03-06T07:54:18;83226.99;;;0.84;36.23
70437;BME280;57877;39.750;-104.894;2024-03-06T07:56:43;83226.79;;;0.93;36.39
70437;BME280;57877;39.750;-104.894;2024-03-06T07:59:08;83229.89;;;0.91;36.40
70437;BME280;57877;39.750;-104.894;2024-03-06T08:01:33;83230.59;;;1.13;35.97
70437;BME280;57877;39.750;-104.894;2024-03-06T08:03:58;83227.14;;;0.61;36.93
70437;BME280;57877;39.750;-104.894;2024-03-06T08:06:23;83224.26;;;1.55;35.43
70437;BME280;57877;39.750;-104.894;2024-03-06T08:08:49;83223.04;;;1.46;35.15
70437;BME280;57877;39.750;-104.894;2024-03-06T08:11:14;83222.74;;;2.12;34.46
70437;BME280;57877;39.750;-104.894;2024-03-06T08:13:39;83220.26;;;1.66;34.61
70437;BME280;57877;39.750;-104.894;2024-03-06T08:16:04;83221.40;;;1.86;33.64
70437;BME280;57877;39.750;-104.894;2024-03-06T08:18:28;83217.64;;;2.13;34.00
70437;BME280;57877;39.750;-104.894;2024-03-06T08:20:54;83216.97;;;2.59;33.40
70437;BME280;57877;39.750;-104.894;2024-03-06T08:23:19;83212.50;;;2.00;34.28
70437;BME280;57877;39.750;-104.894;2024-03-06T08:25:44;83211.70;;;2.47;33.44
70437;BME280;57877;39.750;-104.894;2024-03-06T08:28:09;83208.79;;;2.68;32.81
70437;BME280;57877;39.750;-104.894;2024-03-06T08:30:34;83209.67;;;2.52;33.48
70437;BME280;57877;39.750;-104.894;2024-03-06T08:32:59;83203.35;;;1.21;35.12
70437;BME280;57877;39.750;-104.894;2024-03-06T08:35:24;83199.67;;;1.04;35.79
70437;BME280;57877;39.750;-104.894;2024-03-06T08:37:49;83194.61;;;0.17;36.44
70437;BME280;57877;39.750;-104.894;2024-03-06T08:40:14;83188.61;;;0.43;36.90
70437;BME280;57877;39.750;-104.894;2024-03-06T08:42:39;83183.28;;;0.91;35.86
70437;BME280;57877;39.750;-104.894;2024-03-06T08:45:05;83179.65;;;0.52;36.87
70437;BME280;57877;39.750;-104.894;2024-03-06T08:47:29;83173.94;;;0.80;36.38
70437;BME280;57877;39.750;-104.894;2024-03-06T08:49:54;83170.99;;;0.84;36.61
70437;BME280;57877;39.750;-104.894;2024-03-06T08:52:20;83166.12;;;1.03;36.22
70437;BME280;57877;39.750;-104.894;2024-03-06T08:54:44;83164.13;;;-0.43;38.53
70437;BME280;57877;39.750;-104.894;2024-03-06T08:57:10;83162.38;;;1.47;36.75
70437;BME280;57877;39.750;-104.894;2024-03-06T08:59:34;83159.65;;;-0.66;39.88
70437;BME280;57877;39.750;-104.894;2024-03-06T09:04:25;83153.46;;;-1.31;42.09
70437;BME280;57877;39.750;-104.894;2024-03-06T09:06:50;83151.57;;;-0.64;41.14
70437;BME280;57877;39.750;-104.894;2024-03-06T09:09:15;83143.95;;;-0.13;39.69
70437;BME280;57877;39.750;-104.894;2024-03-06T09:11:40;83147.77;;;0.44;38.44
70437;BME280;57877;39.750;-104.894;2024-03-06T09:14:05;83144.51;;;-0.84;40.53
70437;BME280;57877;39.750;-104.894;2024-03-06T09:16:30;83140.20;;;0.76;37.41
70437;BME280;57877;39.750;-104.894;2024-03-06T09:18:55;83133.73;;;1.02;36.98
70437;BME280;57877;39.750;-104.894;2024-03-06T09:21:20;83136.32;;;0.47;38.09
70437;BME280;57877;39.750;-104.894;2024-03-06T09:23:45;83136.18;;;0.63;37.75
70437;BME280;57877;39.750;-104.894;2024-03-06T09:26:10;83138.94;;;1.05;37.40
70437;BME280;57877;39.750;-104.894;2024-03-06T09:28:35;83129.73;;;1.12;36.76
70437;BME280;57877;39.750;-104.894;2024-03-06T09:31:00;83124.95;;;1.88;36.36
70437;BME280;57877;39.750;-104.894;2024-03-06T09:33:25;83127.53;;;1.69;35.94
70437;BME280;57877;39.750;-104.894;2024-03-06T09:35:50;83122.31;;;0.85;37.37
70437;BME280;57877;39.750;-104.894;2024-03-06T09:38:16;83118.32;;;1.39;36.17
70437;BME280;57877;39.750;-104.894;2024-03-06T09:40:41;83114.17;;;1.57;36.00
70437;BME280;57877;39.750;-104.894;2024-03-06T09:43:06;83112.55;;;1.15;36.77
70437;BME280;57877;39.750;-104.894;2024-03-06T09:45:31;83111.44;;;1.04;36.76
70437;BME280;57877;39.750;-104.894;2024-03-06T09:47:56;83111.36;;;1.23;36.12
70437;BME280;57877;39.750;-104.894;2024-03-06T09:50:24;83105.52;;;1.12;36.29
70437;BME280;57877;39.750;-104.894;2024-03-06T09:52:49;83099.39;;;0.38;37.93
70437;BME280;57877;39.750;-104.894;2024-03-06T09:55:11;83092.98;;;-0.24;38.81
70437;BME280;57877;39.750;-104.894;2024-03-06T09:57:36;83094.28;;;0.51;38.08
70437;BME280;57877;39.750;-104.894;2024-03-06T10:00:01;83089.25;;;0.28;38.08
70437;BME280;57877;39.750;-104.894;2024-03-06T10:02:34;83078.34;;;-0.72;40.00
70437;BME280;57877;39.750;-104.894;2024-03-06T10:04:51;83067.57;;;-1.07;40.93
70437;BME280;57877;39.750;-104.894;2024-03-06T10:07:16;83067.99;;;-1.54;43.06
70437;BME280;57877;39.750;-104.894;2024-03-06T10:09:42;83062.66;;;-0.62;41.64
70437;BME280;57877;39.750;-104.894;2024-03-06T10:12:07;83060.00;;;-0.99;42.10
70437;BME280;57877;39.750;-104.894;2024-03-06T10:14:32;83064.33;;;-1.29;42.79
70437;BME280;57877;39.750;-104.894;2024-03-06T10:16:57;83059.78;;;-0.41;40.74
70437;BME280;57877;39.750;-104.894;2024-03-06T10:19:23;83053.67;;;0.19;39.56
70437;BME280;57877;39.750;-104.894;2024-03-06T10:21:48;83051.49;;;-0.70;40.83
70437;BME280;57877;39.750;-104.894;2024-03-06T10:24:12;83050.04;;;-0.62;40.43
70437;BME280;57877;39.750;-104.894;2024-03-06T10:26:37;83047.69;;;-0.32;40.20
70437;BME280;57877;39.750;-104.894;2024-03-06T10:29:02;83044.28;;;-0.68;40.74
70437;BME280;57877;39.750;-104.894;2024-03-06T10:31:27;83047.45;;;0.02;39.64
70437;BME280;57877;39.750;-104.894;2024-03-06T10:33:52;83049.37;;;0.49;38.42
70437;BME280;57877;39.750;-104.894;2024-03-06T10:36:17;83045.23;;;0.51;38.77
70437;BME280;57877;39.750;-104.894;2024-03-06T10:38:44;83050.38;;;0.86;37.79
70437;BME280;57877;39.750;-104.894;2024-03-06T10:41:08;83053.09;;;-0.05;39.79
70437;BME280;57877;39.750;-104.894;2024-03-06T10:43:32;83057.89;;;0.55;39.03
70437;BME280;57877;39.750;-104.894;2024-03-06T10:46:00;83062.00;;;0.54;38.83
70437;BME280;57877;39.750;-104.894;2024-03-06T10:48:22;83055.76;;;-0.45;40.36
70437;BME280;57877;39.750;-104.894;2024-03-06T10:50:49;83062.14;;;-0.71;40.80
70437;BME280;57877;39.750;-104.894;2024-03-06T10:53:14;83072.64;;;-0.49;40.69
70437;BME280;57877;39.750;-104.894;2024-03-06T10:55:38;83060.26;;;0.14;39.88
70437;BME280;57877;39.750;-104.894;2024-03-06T10:58:05;83062.16;;;-0.69;41.53
70437;BME280;57877;39.750;-104.894;2024-03-06T11:00:28;83065.92;;;-0.61;40.91
70437;BME280;57877;39.750;-104.894;2024-03-06T11:02:54;83061.59;;;-1.41;43.23
70437;BME280;57877;39.750;-104.894;2024-03-06T11:05:18;83053.28;;;-0.63;41.40
70437;BME280;57877;39.750;-104.894;2024-03-06T11:07:43;83057.47;;;-0.57;41.93
70437;BME280;57877;39.750;-104.894;2024-03-06T11:10:08;83056.90;;;0.06;39.93
70437;BME280;57877;39.750;-104.894;2024-03-06T11:12:35;83057.46;;;-0.03;39.95
70437;BME280;57877;39.750;-104.894;2024-03-06T11:14:58;83058.83;;;0.15;39.62
70437;BME280;57877;39.750;-104.894;2024-03-06T11:17:26;83065.37;;;-0.48;40.53
70437;BME280;57877;39.750;-104.894;2024-03-06T11:22:13;83056.55;;;-0.61;40.69
70437;BME280;57877;39.750;-104.894;2024-03-06T11:24:38;83058.56;;;-0.77;41.06
70437;BME280;57877;39.750;-104.894;2024-03-06T11:27:04;83062.29;;;-0.12;39.78
70437;BME280;57877;39.750;-104.894;2024-03-06T11:29:29;83056.42;;;-0.11;40.16
70437;BME280;57877;39.750;-104.894;2024-03-06T11:34:18;83046.76;;;-0.89;40.80
70437;BME280;57877;39.750;-104.894;2024-03-06T11:36:47;83048.39;;;-0.34;41.12
70437;BME280;57877;39.750;-104.894;2024-03-06T11:39:09;83047.69;;;-0.03;39.51
70437;BME280;57877;39.750;-104.894;2024-03-06T11:44:01;83044.04;;;-0.17;39.53
70437;BME280;57877;39.750;-104.894;2024-03-06T11:48:53;83038.74;;;-0.33;40.13
70437;BME280;57877;39.750;-104.894;2024-03-06T11:51:14;83035.87;;;-0.35;40.07
70437;BME280;57877;39.750;-104.894;2024-03-06T11:53:39;83032.47;;;-0.23;39.54
70437;BME280;57877;39.750;-104.894;2024-03-06T11:56:06;83029.07;;;0.23;38.84
70437;BME280;57877;39.750;-104.894;2024-03-06T11:58:29;83023.82;;;0.79;37.82
70437;BME280;57877;39.750;-104.894;2024-03-06T12:00:54;83022.63;;;-0.58;39.24
70437;BME280;57877;39.750;-104.894;2024-03-06T12:03:19;83029.25;;;-0.12;38.78
70437;BME280;57877;39.750;-104.894;2024-03-06T12:05:45;83035.25;;;0.28;38.46
70437;BME280;57877;39.750;-104.894;2024-03-06T12:08:09;83030.52;;;0.31;37.93
70437;BME280;57877;39.750;-104.894;2024-03-06T12:10:38;83027.81;;;-0.31;39.11
70437;BME280;57877;39.750;-104.894;2024-03-06T12:13:01;83027.17;;;-0.29;39.35
70437;BME280;57877;39.750;-104.894;2024-03-06T12:15:25;83037.34;;;-0.56;39.20
70437;BME280;57877;39.750;-104.894;2024-03-06T12:17:50;83045.26;;;0.20;38.14
70437;BME280;57877;39.750;-104.894;2024-03-06T12:20:15;83034.41;;;0.17;38.06
70437;BME280;57877;39.750;-104.894;2024-03-06T12:22:44;83031.24;;;0.39;38.03
70437;BME280;57877;39.750;-104.894;2024-03-06T12:25:06;83035.01;;;-0.62;40.26
70437;BME280;57877;39.750;-104.894;2024-03-06T12:27:30;83031.45;;;-0.88;39.94
70437;BME280;57877;39.750;-104.894;2024-03-06T12:29:55;83028.56;;;-0.11;38.88
70437;BME280;57877;39.750;-104.894;2024-03-06T12:32:20;83029.22;;;-0.94;39.82
70437;BME280;57877;39.750;-104.894;2024-03-06T12:37:11;83043.25;;;0.47;37.63
70437;BME280;57877;39.750;-104.894;2024-03-06T12:39:36;83043.71;;;0.68;36.38
70437;BME280;57877;39.750;-104.894;2024-03-06T12:42:01;83043.50;;;1.05;35.76